Time;durP1;ratioP1;P1;durP2;ratioP2;P2;SDS_P1;SDS_P2;PMS_P1;PMS_P2;Temp;Humidity;BMP_temperature;BMP_pressure;BME280_temperature;BME280_humidity;BME280_pressure;Samples;Min_cycle;Max_cycle;Signal;HPM_P1;HPM_P2
2022/07/21 00:01:54;;;;;;;4.97;2.80;;;20.40;99.90;;;;;;6241836;22;20022;-76
2022/07/21 00:04:20;;;;;;;7.97;3.33;;;20.40;99.90;;;;;;6240976;22;20028;-76
2022/07/21 00:06:47;;;;;;;11.00;3.60;;;20.40;99.90;;;;;;6268638;22;20023;-76
2022/07/21 00:09:14;;;;;;;11.90;3.55;;;20.40;99.90;;;;;;6216564;22;20027;-75
2022/07/21 00:11:40;;;;;;;12.57;3.30;;;20.40;99.90;;;;;;6267829;22;20023;-76
2022/07/21 00:14:08;;;;;;;6.50;3.38;;;20.40;99.90;;;;;;6217634;22;20019;-76
2022/07/21 00:16:34;;;;;;;9.00;3.25;;;20.40;99.90;;;;;;6266265;22;20023;-75
2022/07/21 00:19:00;;;;;;;9.45;3.00;;;20.40;99.90;;;;;;6268024;22;20020;-75
2022/07/21 00:21:27;;;;;;;6.25;2.92;;;20.40;99.90;;;;;;6241322;22;20069;-76
2022/07/21 00:23:53;;;;;;;9.10;3.42;;;20.40;99.90;;;;;;6242959;22;20015;-75
2022/07/21 00:26:18;;;;;;;9.65;3.20;;;20.40;99.90;;;;;;6267072;22;20031;-75
2022/07/21 00:28:44;;;;;;;6.63;2.88;;;20.40;99.90;;;;;;6267885;22;20018;-76
2022/07/21 00:31:10;;;;;;;11.00;3.28;;;20.40;99.90;;;;;;6267591;22;20029;-75
2022/07/21 00:33:35;;;;;;;6.75;2.67;;;20.40;99.90;;;;;;6266862;22;20011;-76
2022/07/21 00:36:01;;;;;;;12.77;3.10;;;20.40;99.90;;;;;;6268078;22;20027;-75
2022/07/21 00:38:27;;;;;;;12.02;3.05;;;20.50;99.90;;;;;;6241437;22;20011;-76
2022/07/21 00:40:54;;;;;;;11.27;2.97;;;20.40;99.90;;;;;;6192506;22;20335;-75
2022/07/21 00:43:20;;;;;;;8.20;2.83;;;20.40;99.90;;;;;;6241190;22;20099;-77
2022/07/21 00:45:46;;;;;;;14.77;3.38;;;20.40;99.90;;;;;;6268280;22;20023;-76
2022/07/21 00:48:12;;;;;;;7.15;2.75;;;20.40;99.90;;;;;;6267055;22;20023;-77
2022/07/21 00:50:38;;;;;;;7.70;3.10;;;20.40;99.90;;;;;;6216677;22;20031;-76
2022/07/21 00:53:03;;;;;;;5.65;3.00;;;20.40;99.90;;;;;;6242270;22;20019;-78
2022/07/21 00:55:29;;;;;;;7.55;3.10;;;20.40;99.90;;;;;;6240776;22;20015;-78
2022/07/21 00:57:55;;;;;;;8.82;3.25;;;20.40;99.90;;;;;;6192433;22;20012;-79
2022/07/21 01:00:25;;;;;;;6.85;3.72;;;20.30;99.90;;;;;;6241228;22;20016;-78
2022/07/21 01:02:50;;;;;;;;;;;20.30;99.90;;;;;;6217924;22;20029;-79
2022/07/21 01:05:17;;;;;;;9.55;3.60;;;20.30;99.90;;;;;;6240837;22;19977;-80
2022/07/21 01:07:45;;;;;;;8.52;3.35;;;20.40;99.90;;;;;;6216823;22;20094;-80
2022/07/21 01:10:13;;;;;;;11.77;3.40;;;20.40;99.90;;;;;;6216595;22;20019;-78
2022/07/21 01:12:39;;;;;;;9.02;3.38;;;20.40;99.90;;;;;;6215561;22;20063;-74
2022/07/21 01:15:10;;;;;;;11.52;4.07;;;20.30;99.90;;;;;;6241981;22;20047;-69
2022/07/21 01:17:36;;;;;;;14.63;4.93;;;20.10;99.90;;;;;;6215587;22;20529;-66
2022/07/21 01:20:08;;;;;;;16.90;5.40;;;20.00;99.90;;;;;;6269687;22;20087;-66
2022/07/21 01:22:35;;;;;;;13.32;5.07;;;19.90;99.90;;;;;;6269054;22;20018;-66
2022/07/21 01:25:02;;;;;;;22.70;6.25;;;19.80;99.90;;;;;;6268520;22;20020;-66
2022/07/21 01:27:28;;;;;;;15.70;5.40;;;19.70;99.90;;;;;;6242573;22;20427;-65
2022/07/21 01:29:55;;;;;;;13.73;5.38;;;19.60;99.90;;;;;;6268238;22;20042;-65
2022/07/21 01:32:22;;;;;;;18.23;5.43;;;19.50;99.90;;;;;;6269729;22;20015;-65
2022/07/21 01:34:48;;;;;;;17.90;5.32;;;19.50;99.90;;;;;;6267873;22;20019;-65
2022/07/21 01:37:14;;;;;;;12.38;5.32;;;19.40;99.90;;;;;;6269094;22;20078;-65
2022/07/21 01:42:24;;;;;;;14.85;5.10;;;19.30;99.90;;;;;;6269448;22;20023;-65
2022/07/21 01:44:51;;;;;;;13.95;6.03;;;19.30;99.90;;;;;;6242626;22;20069;-65
2022/07/21 01:47:17;;;;;;;11.60;5.20;;;19.30;99.90;;;;;;6267405;22;20012;-65
2022/07/21 01:49:46;;;;;;;15.95;5.10;;;19.20;99.90;;;;;;6269873;22;20103;-65
2022/07/21 01:52:11;;;;;;;11.25;5.03;;;19.10;99.90;;;;;;6267642;22;20018;-65
2022/07/21 01:54:37;;;;;;;16.73;4.88;;;19.10;99.90;;;;;;6270247;22;20920;-65
2022/07/21 01:57:03;;;;;;;11.63;5.38;;;19.00;99.90;;;;;;6240832;22;20062;-65
2022/07/21 01:59:29;;;;;;;11.07;5.30;;;19.00;99.90;;;;;;6269288;22;20030;-65
2022/07/21 02:01:55;;;;;;;12.18;4.90;;;19.00;99.90;;;;;;6268983;22;20066;-65
2022/07/21 02:04:20;;;;;;;16.27;5.70;;;19.00;99.90;;;;;;6267966;22;20024;-65
2022/07/21 02:06:46;;;;;;;22.75;5.85;;;18.90;99.90;;;;;;6269921;22;20018;-65
2022/07/21 02:09:12;;;;;;;17.27;5.97;;;18.90;99.90;;;;;;6240188;22;20087;-65
2022/07/21 02:11:38;;;;;;;10.70;5.10;;;18.90;99.90;;;;;;6269625;22;20035;-65
2022/07/21 02:14:04;;;;;;;10.35;4.93;;;18.90;99.90;;;;;;6267635;22;20046;-65
2022/07/21 02:16:30;;;;;;;15.82;5.20;;;18.90;99.90;;;;;;6242476;22;20227;-65
2022/07/21 02:18:56;;;;;;;11.65;4.93;;;18.80;99.90;;;;;;6241816;22;20020;-65
2022/07/21 02:21:22;;;;;;;15.40;5.85;;;18.80;99.90;;;;;;6241016;22;20027;-65
2022/07/21 02:23:47;;;;;;;17.98;6.43;;;18.70;99.90;;;;;;6269461;22;20101;-65
2022/07/21 02:26:13;;;;;;;15.07;5.78;;;18.70;99.90;;;;;;6267138;22;20023;-65
2022/07/21 02:28:39;;;;;;;13.65;6.15;;;18.70;99.90;;;;;;6244069;22;20091;-65
2022/07/21 02:31:07;;;;;;;23.65;7.18;;;18.70;99.90;;;;;;6269244;22;20505;-65
2022/07/21 02:33:33;;;;;;;23.30;7.68;;;18.70;99.90;;;;;;6271829;22;20047;-65
2022/07/21 02:35:59;;;;;;;23.95;7.80;;;18.80;99.90;;;;;;6243019;22;20031;-65
2022/07/21 02:38:25;;;;;;;27.90;7.05;;;18.80;99.90;;;;;;6270704;22;20301;-65
2022/07/21 02:40:50;;;;;;;22.52;5.95;;;18.80;99.90;;;;;;6271238;22;20022;-65
2022/07/21 02:43:16;;;;;;;19.42;6.10;;;18.80;99.90;;;;;;6269038;22;20020;-65
2022/07/21 02:45:44;;;;;;;17.30;7.28;;;18.80;99.90;;;;;;6271480;22;20015;-66
2022/07/21 02:48:12;;;;;;;19.10;7.50;;;18.80;99.90;;;;;;6258363;22;20020;-65
2022/07/21 02:50:41;;;;;;;14.17;6.80;;;18.80;99.90;;;;;;6271237;22;20413;-65
2022/07/21 02:53:12;;;;;;;11.80;6.00;;;18.80;99.90;;;;;;6267276;22;20301;-65
2022/07/21 02:55:39;;;;;;;13.02;6.97;;;18.80;99.90;;;;;;6270934;22;20023;-65
2022/07/21 02:58:08;;;;;;;13.02;5.78;;;18.80;99.90;;;;;;6270890;22;20020;-65
2022/07/21 03:00:35;;;;;;;16.80;6.03;;;18.70;99.90;;;;;;6269907;22;20012;-65
2022/07/21 03:03:01;;;;;;;19.60;6.85;;;18.70;99.90;;;;;;6270980;22;20015;-65
2022/07/21 03:05:27;;;;;;;11.30;6.03;;;18.70;99.90;;;;;;6266962;22;20016;-65
2022/07/21 03:07:52;;;;;;;18.27;6.63;;;18.70;99.90;;;;;;6269401;22;20016;-65
2022/07/21 03:10:18;;;;;;;16.83;7.10;;;18.70;99.90;;;;;;6268490;22;20069;-65
2022/07/21 03:12:44;;;;;;;19.23;6.63;;;18.70;99.90;;;;;;6271311;22;20015;-65
2022/07/21 03:15:10;;;;;;;14.27;6.35;;;18.70;99.90;;;;;;6270265;22;20492;-65
2022/07/21 03:17:35;;;;;;;14.90;6.25;;;18.70;99.90;;;;;;6270002;22;20042;-65
2022/07/21 03:20:01;;;;;;;12.55;6.78;;;18.70;99.90;;;;;;6271238;22;20012;-65
2022/07/21 03:22:27;;;;;;;14.80;6.35;;;18.60;99.90;;;;;;6268710;22;20081;-65
2022/07/21 03:24:53;;;;;;;11.77;6.47;;;18.60;99.90;;;;;;6271217;22;20342;-65
2022/07/21 03:27:19;;;;;;;11.57;6.75;;;18.60;99.90;;;;;;6268764;22;20016;-65
2022/07/21 03:29:44;;;;;;;13.25;6.55;;;18.60;99.90;;;;;;6244054;22;20386;-65
2022/07/21 03:32:10;;;;;;;11.98;6.72;;;18.60;99.90;;;;;;6268968;22;20030;-65
2022/07/21 03:34:44;;;;;;;13.90;7.32;;;18.60;99.90;;;;;;6270059;22;20520;-65
2022/07/21 03:37:11;;;;;;;16.13;7.00;;;18.70;99.90;;;;;;6270498;22;20024;-65
2022/07/21 03:39:37;;;;;;;18.08;7.25;;;18.70;99.90;;;;;;6266608;22;20019;-65
2022/07/21 03:42:03;;;;;;;17.23;7.70;;;18.70;99.90;;;;;;6270483;22;20382;-65
2022/07/21 03:44:29;;;;;;;18.50;7.13;;;18.70;99.90;;;;;;6266556;22;20244;-66
2022/07/21 03:46:56;;;;;;;14.93;7.68;;;18.70;99.90;;;;;;6270482;22;20027;-65
2022/07/21 03:49:22;;;;;;;14.35;6.97;;;18.70;99.90;;;;;;6267424;22;20054;-66
2022/07/21 03:51:48;;;;;;;13.98;7.65;;;18.70;99.90;;;;;;6270356;22;20023;-65
2022/07/21 03:54:14;;;;;;;15.18;7.50;;;18.70;99.90;;;;;;6269517;22;20096;-66
2022/07/21 03:56:39;;;;;;;15.98;7.47;;;18.70;99.90;;;;;;6266890;22;20027;-66
2022/07/21 03:59:05;;;;;;;14.05;7.20;;;18.70;99.90;;;;;;6270665;22;20432;-65
2022/07/21 04:01:31;;;;;;;15.23;7.32;;;18.70;99.90;;;;;;6268033;22;20023;-65
2022/07/21 04:03:56;;;;;;;15.27;7.80;;;18.70;99.90;;;;;;6270349;22;20017;-65
2022/07/21 04:06:22;;;;;;;15.52;7.30;;;18.70;99.90;;;;;;6268281;22;20045;-66
2022/07/21 04:08:48;;;;;;;14.50;7.22;;;18.70;99.90;;;;;;6270068;22;20015;-65
2022/07/21 04:11:13;;;;;;;11.90;7.05;;;18.70;99.90;;;;;;6269023;22;20103;-65
2022/07/21 04:13:39;;;;;;;15.25;7.18;;;18.70;99.90;;;;;;6269324;22;20031;-65
2022/07/21 04:16:05;;;;;;;13.40;7.68;;;18.70;99.90;;;;;;6271044;22;20022;-65
2022/07/21 04:18:31;;;;;;;16.52;8.50;;;18.70;99.90;;;;;;6268273;22;20105;-65
2022/07/21 04:20:57;;;;;;;21.52;7.80;;;18.70;99.90;;;;;;6270650;22;20094;-65
2022/07/21 04:23:22;;;;;;;13.68;7.57;;;18.70;99.90;;;;;;6268143;22;20326;-65
2022/07/21 04:25:48;;;;;;;16.83;7.63;;;18.70;99.90;;;;;;6270477;22;20016;-65
2022/07/21 04:28:14;;;;;;;13.82;7.90;;;18.70;99.90;;;;;;6266711;22;20019;-65
2022/07/21 04:30:39;;;;;;;16.73;7.40;;;18.70;99.90;;;;;;6270143;22;20098;-66
2022/07/21 04:33:06;;;;;;;18.77;7.78;;;18.70;99.90;;;;;;6267741;22;20434;-65
2022/07/21 04:35:32;;;;;;;16.75;7.72;;;18.70;99.90;;;;;;6266748;22;20019;-65
2022/07/21 04:37:58;;;;;;;13.85;7.68;;;18.70;99.90;;;;;;6270271;22;20213;-65
2022/07/21 04:40:23;;;;;;;14.73;8.02;;;18.70;99.90;;;;;;6268105;22;20450;-65
2022/07/21 04:42:49;;;;;;;14.27;8.00;;;18.70;99.90;;;;;;6268319;22;20019;-65
2022/07/21 04:45:17;;;;;;;15.13;7.85;;;18.70;99.90;;;;;;6267966;22;20047;-65
2022/07/21 04:47:46;;;;;;;20.75;8.75;;;18.80;99.90;;;;;;6268017;22;20019;-65
2022/07/21 04:50:13;;;;;;;14.63;8.35;;;18.80;99.90;;;;;;6269075;22;20312;-65
2022/07/21 04:52:39;;;;;;;14.73;8.10;;;18.80;99.90;;;;;;6268479;22;20490;-65
2022/07/21 04:55:06;;;;;;;13.80;8.13;;;18.80;99.90;;;;;;6270354;22;20454;-65
2022/07/21 04:57:31;;;;;;;14.43;8.23;;;18.80;99.90;;;;;;6267489;22;20031;-65
2022/07/21 04:59:57;;;;;;;18.15;9.07;;;18.90;99.90;;;;;;6270444;22;20422;-66
2022/07/21 05:02:23;;;;;;;13.65;8.63;;;18.90;99.90;;;;;;6267322;22;20012;-65
2022/07/21 05:04:48;;;;;;;16.15;8.57;;;18.90;99.90;;;;;;6270384;22;20073;-65
2022/07/21 05:07:14;;;;;;;18.17;9.30;;;18.90;99.90;;;;;;6268438;22;20022;-65
2022/07/21 05:09:40;;;;;;;16.73;9.15;;;18.90;99.90;;;;;;6267049;22;20018;-65
2022/07/21 05:12:05;;;;;;;14.82;8.70;;;19.00;99.90;;;;;;6270139;22;20086;-65
2022/07/21 05:14:31;;;;;;;13.10;8.32;;;18.90;99.90;;;;;;6267906;22;20466;-65
2022/07/21 05:16:57;;;;;;;20.83;9.55;;;18.90;99.90;;;;;;6270061;22;20016;-66
2022/07/21 05:19:23;;;;;;;19.15;9.57;;;19.00;99.90;;;;;;6239593;22;20057;-66
2022/07/21 05:21:48;;;;;;;18.92;9.55;;;19.00;99.90;;;;;;6270140;22;20019;-66
2022/07/21 05:24:14;;;;;;;18.80;9.00;;;19.00;99.90;;;;;;6266107;22;20981;-65
2022/07/21 05:26:40;;;;;;;19.58;9.55;;;19.00;99.90;;;;;;6269534;22;20011;-66
2022/07/21 05:29:05;;;;;;;18.65;9.23;;;19.00;99.90;;;;;;6269071;22;20016;-66
2022/07/21 05:31:31;;;;;;;16.05;8.90;;;19.10;99.90;;;;;;6268293;22;20020;-65
2022/07/21 05:33:57;;;;;;;18.80;9.30;;;19.00;99.90;;;;;;6268181;22;20019;-65
2022/07/21 05:36:23;;;;;;;16.92;8.82;;;19.10;99.90;;;;;;6267705;22;20019;-65
2022/07/21 05:38:49;;;;;;;16.30;8.82;;;19.10;99.90;;;;;;6269746;22;20026;-65
2022/07/21 05:41:15;;;;;;;15.90;9.00;;;19.10;99.90;;;;;;6266341;22;20039;-65
2022/07/21 05:43:41;;;;;;;14.07;9.40;;;19.10;99.90;;;;;;6267100;22;20073;-65
2022/07/21 05:46:07;;;;;;;20.80;9.35;;;19.10;99.90;;;;;;6268835;22;20047;-65
2022/07/21 05:48:33;;;;;;;16.27;9.05;;;19.10;99.90;;;;;;6268214;22;20027;-65
2022/07/21 05:50:59;;;;;;;21.02;10.30;;;19.10;99.90;;;;;;6269674;22;20512;-65
2022/07/21 05:53:24;;;;;;;15.02;9.63;;;19.00;99.90;;;;;;6267911;22;20374;-65
2022/07/21 05:55:50;;;;;;;20.95;9.90;;;19.10;99.90;;;;;;6267787;22;20020;-65
2022/07/21 05:58:18;;;;;;;21.38;10.10;;;19.10;99.90;;;;;;6267797;22;20055;-65
2022/07/21 06:01:07;;;;;;;29.02;10.40;;;19.20;99.90;;;;;;6269805;22;20012;-65
2022/07/21 06:03:30;;;;;;;19.88;10.52;;;19.30;99.90;;;;;;6269040;22;20023;-65
2022/07/21 06:05:56;;;;;;;22.83;10.90;;;19.40;99.90;;;;;;6270990;22;20016;-65
2022/07/21 06:08:22;;;;;;;20.48;11.57;;;19.40;99.90;;;;;;6271025;22;20015;-65
2022/07/21 06:10:47;;;;;;;22.55;12.65;;;19.40;99.90;;;;;;6269933;22;20016;-65
2022/07/21 06:13:13;;;;;;;21.75;13.02;;;19.50;99.90;;;;;;6272061;22;20011;-64
2022/07/21 06:15:39;;;;;;;23.58;12.73;;;19.70;99.90;;;;;;6269561;22;20030;-65
2022/07/21 06:18:04;;;;;;;21.92;13.60;;;19.70;99.90;;;;;;6269860;22;20099;-65
2022/07/21 06:20:30;;;;;;;23.67;12.80;;;19.70;99.90;;;;;;6269136;22;20058;-65
2022/07/21 06:22:56;;;;;;;21.27;13.48;;;19.80;99.90;;;;;;6271645;22;20012;-65
2022/07/21 06:25:22;;;;;;;26.10;13.60;;;19.80;99.90;;;;;;6270781;22;20082;-64
2022/07/21 06:27:47;;;;;;;22.73;13.88;;;19.90;99.90;;;;;;6270083;22;20018;-65
2022/07/21 06:30:13;;;;;;;23.80;13.50;;;19.90;99.90;;;;;;6269816;22;20016;-65
2022/07/21 06:32:40;;;;;;;21.35;13.88;;;20.00;99.90;;;;;;6269381;22;20097;-64
2022/07/21 06:35:06;;;;;;;23.58;13.60;;;20.00;99.90;;;;;;6269719;22;20020;-64
2022/07/21 06:37:31;;;;;;;17.48;13.35;;;20.00;99.90;;;;;;6269387;22;20016;-65
2022/07/21 06:39:57;;;;;;;17.23;12.48;;;20.10;99.90;;;;;;6271010;22;20513;-65
2022/07/21 06:42:23;;;;;;;22.92;14.20;;;20.10;99.90;;;;;;6269957;22;20026;-64
2022/07/21 06:44:49;;;;;;;18.48;12.35;;;20.20;99.90;;;;;;6270656;22;20023;-64
2022/07/21 06:47:15;;;;;;;22.17;13.00;;;20.20;99.90;;;;;;6271254;22;20023;-64
2022/07/21 06:49:41;;;;;;;19.13;12.75;;;20.20;99.90;;;;;;6269042;22;20024;-65
2022/07/21 06:52:06;;;;;;;19.05;13.15;;;20.20;99.90;;;;;;6271364;22;20027;-64
2022/07/21 06:54:32;;;;;;;22.58;14.10;;;20.20;99.90;;;;;;6267451;22;20312;-64
2022/07/21 06:56:58;;;;;;;17.98;13.70;;;20.30;99.90;;;;;;6271633;22;20188;-64
2022/07/21 06:59:29;;;;;;;22.92;13.40;;;20.30;99.90;;;;;;6267064;22;20018;-64
2022/07/21 07:01:55;;;;;;;19.73;13.15;;;20.40;99.90;;;;;;6270238;22;20007;-64
2022/07/21 07:04:21;;;;;;;18.67;13.57;;;20.40;99.90;;;;;;6270484;22;20047;-64
2022/07/21 07:06:51;;;;;;;20.90;13.82;;;20.40;99.90;;;;;;6268739;22;20395;-64
2022/07/21 07:09:17;;;;;;;16.45;14.30;;;20.30;99.90;;;;;;6268248;22;20019;-64
2022/07/21 07:11:43;;;;;;;25.08;13.88;;;20.30;99.90;;;;;;6268320;22;20030;-65
2022/07/21 07:14:08;;;;;;;17.60;13.30;;;20.30;99.90;;;;;;6270899;22;20023;-64
2022/07/21 07:16:34;;;;;;;18.63;14.05;;;20.40;99.90;;;;;;6265948;22;20019;-64
2022/07/21 07:19:00;;;;;;;16.45;12.40;;;20.40;99.90;;;;;;6271153;22;20423;-65
2022/07/21 07:21:25;;;;;;;16.17;12.93;;;20.40;99.90;;;;;;6269473;22;20094;-64
2022/07/21 07:23:51;;;;;;;20.40;13.68;;;20.40;99.90;;;;;;6270076;22;20023;-64
2022/07/21 07:26:17;;;;;;;19.45;13.65;;;20.40;99.90;;;;;;6270884;22;20015;-65
2022/07/21 07:28:43;;;;;;;21.63;13.00;;;20.40;99.90;;;;;;6266554;22;20024;-65
2022/07/21 07:31:08;;;;;;;19.95;12.90;;;20.30;99.90;;;;;;6270080;22;20020;-65
2022/07/21 07:33:34;;;;;;;17.05;11.82;;;20.40;99.90;;;;;;6268530;22;20008;-65
2022/07/21 07:36:00;;;;;;;18.92;12.32;;;20.40;99.90;;;;;;6270910;22;20340;-65
2022/07/21 07:38:27;;;;;;;17.02;13.35;;;20.40;99.90;;;;;;6269993;22;20015;-65
2022/07/21 07:40:52;;;;;;;14.45;12.05;;;20.40;99.90;;;;;;6270452;22;20066;-65
2022/07/21 07:43:18;;;;;;;18.75;12.27;;;20.40;99.90;;;;;;6218037;22;20019;-65
2022/07/21 07:45:44;;;;;;;14.63;12.25;;;20.40;99.90;;;;;;6266560;22;20047;-66
2022/07/21 07:48:09;;;;;;;18.95;12.73;;;20.40;99.90;;;;;;6270324;22;20069;-65
2022/07/21 07:50:35;;;;;;;23.60;12.95;;;20.30;99.90;;;;;;6268293;22;20058;-65
2022/07/21 07:53:01;;;;;;;17.23;12.90;;;20.30;99.90;;;;;;6270464;22;20016;-65
2022/07/21 07:55:28;;;;;;;19.88;13.80;;;20.20;99.90;;;;;;6268729;22;20033;-65
2022/07/21 07:57:54;;;;;;;17.55;13.98;;;20.20;99.90;;;;;;6270353;22;20234;-65
2022/07/21 08:00:20;;;;;;;23.10;14.82;;;20.10;99.90;;;;;;6269833;22;20019;-65
2022/07/21 08:02:45;;;;;;;17.45;14.30;;;20.00;99.90;;;;;;6265346;22;20036;-65
2022/07/21 08:05:12;;;;;;;19.30;14.25;;;20.00;99.90;;;;;;6268067;22;20023;-65
2022/07/21 08:07:38;;;;;;;18.30;14.30;;;19.90;99.90;;;;;;6265209;22;20020;-65
2022/07/21 08:10:09;;;;;;;15.77;13.13;;;19.80;99.90;;;;;;6267316;22;20015;-65
2022/07/21 08:12:35;;;;;;;17.80;12.98;;;19.70;99.90;;;;;;6266114;22;20446;-65
2022/07/21 08:15:01;;;;;;;16.42;12.60;;;19.70;99.90;;;;;;6270065;22;20381;-65
2022/07/21 08:17:27;;;;;;;13.88;12.15;;;19.60;99.90;;;;;;6269095;22;20015;-65
2022/07/21 08:19:53;;;;;;;16.35;12.85;;;19.70;99.90;;;;;;6269116;22;20431;-65
2022/07/21 08:22:19;;;;;;;15.40;12.70;;;19.70;99.90;;;;;;6269535;22;20153;-65
2022/07/21 08:24:45;;;;;;;18.23;12.70;;;19.70;99.90;;;;;;6267976;22;20509;-65
2022/07/21 08:27:10;;;;;;;16.30;12.98;;;19.70;99.90;;;;;;6269934;22;20436;-65
2022/07/21 08:29:36;;;;;;;20.10;13.02;;;19.80;99.90;;;;;;6268049;22;20008;-65
2022/07/21 08:32:02;;;;;;;16.75;12.52;;;19.80;99.90;;;;;;6267792;22;20469;-65
2022/07/21 08:34:28;;;;;;;18.52;13.23;;;19.90;99.90;;;;;;6266574;22;20078;-65
2022/07/21 08:36:54;;;;;;;15.90;12.13;;;19.90;99.90;;;;;;6268586;22;20058;-65
2022/07/21 08:39:20;;;;;;;18.33;13.07;;;19.90;99.90;;;;;;6266504;22;20435;-66
2022/07/21 08:41:46;;;;;;;19.88;13.25;;;19.90;99.90;;;;;;6266163;22;20020;-65
2022/07/21 08:44:12;;;;;;;16.20;12.50;;;19.90;99.90;;;;;;6268271;22;20016;-66
2022/07/21 08:46:41;;;;;;;18.10;12.02;;;19.90;99.90;;;;;;6267205;22;20027;-65
2022/07/21 08:49:09;;;;;;;16.00;12.75;;;19.90;99.90;;;;;;6267814;22;20024;-65
2022/07/21 08:51:35;;;;;;;15.85;12.45;;;20.00;99.90;;;;;;6265466;22;20529;-66
2022/07/21 08:54:02;;;;;;;16.30;11.70;;;20.00;99.90;;;;;;6269520;22;20454;-65
2022/07/21 08:56:28;;;;;;;15.20;12.32;;;20.10;99.90;;;;;;6269373;22;20023;-65
2022/07/21 08:58:54;;;;;;;15.52;12.35;;;20.20;99.90;;;;;;6268504;22;20019;-65
2022/07/21 09:01:23;;;;;;;19.35;13.25;;;20.40;99.90;;;;;;6270143;22;20015;-65
2022/07/21 09:03:51;;;;;;;17.95;12.82;;;20.50;99.90;;;;;;6267320;22;20099;-65
2022/07/21 09:06:16;;;;;;;14.57;12.05;;;20.60;99.90;;;;;;6269742;22;20012;-66
2022/07/21 09:08:44;;;;;;;14.70;12.32;;;20.70;99.90;;;;;;6267516;22;20439;-66
2022/07/21 09:11:15;;;;;;;13.88;11.95;;;20.90;99.90;;;;;;6269787;22;20012;-65
2022/07/21 09:13:43;;;;;;;13.77;12.02;;;21.00;99.90;;;;;;6266647;22;20098;-66
2022/07/21 09:16:09;;;;;;;17.35;11.98;;;21.10;99.90;;;;;;6269156;22;20020;-66
2022/07/21 09:18:52;;;;;;;15.00;12.60;;;21.20;99.90;;;;;;6269671;22;20139;-66
2022/07/21 09:21:19;;;;;;;18.63;14.52;;;21.20;99.90;;;;;;6268163;22;20069;-65
2022/07/21 09:23:45;;;;;;;18.83;13.07;;;21.30;99.90;;;;;;6269269;22;20011;-65
2022/07/21 09:26:11;;;;;;;15.02;12.48;;;21.30;99.90;;;;;;6267958;22;20094;-65
2022/07/21 09:28:37;;;;;;;19.30;13.27;;;21.30;99.90;;;;;;6269480;22;20060;-66
2022/07/21 09:31:06;;;;;;;18.38;13.35;;;21.40;99.90;;;;;;6267233;22;20023;-66
2022/07/21 09:33:38;;;;;;;16.98;14.05;;;21.50;99.90;;;;;;6268624;22;20020;-66
2022/07/21 09:36:10;;;;;;;14.32;12.77;;;21.60;99.90;;;;;;6269284;22;20024;-66
2022/07/21 09:38:54;;;;;;;14.90;12.93;;;21.70;99.90;;;;;;6267062;22;20159;-66
2022/07/21 09:41:23;;;;;;;14.65;12.07;;;21.90;99.90;;;;;;6267626;22;20477;-66
2022/07/21 09:43:51;;;;;;;15.10;11.40;;;22.00;99.90;;;;;;6267612;22;20015;-66
2022/07/21 09:46:43;;;;;;;15.80;11.55;;;22.20;99.90;;;;;;6268687;22;20011;-66
2022/07/21 09:49:08;;;;;;;14.10;12.00;;;22.30;99.90;;;;;;6264080;22;20093;-66
2022/07/21 09:51:43;;;;;;;13.13;11.07;;;22.60;99.90;;;;;;6263904;22;20016;-66
2022/07/21 09:54:13;;;;;;;15.50;11.65;;;22.80;99.90;;;;;;6269787;22;20012;-66
2022/07/21 09:56:40;;;;;;;15.90;13.48;;;22.80;99.90;;;;;;6267841;22;20081;-67
2022/07/21 09:59:08;;;;;;;15.18;13.25;;;22.70;99.90;;;;;;6267220;22;20076;-67
2022/07/21 10:01:35;;;;;;;14.93;11.85;;;22.70;99.90;;;;;;6241800;22;20016;-67
2022/07/21 10:04:03;;;;;;;18.00;12.75;;;22.50;99.90;;;;;;6265620;22;20020;-67
2022/07/21 10:06:34;;;;;;;13.30;12.00;;;22.40;99.90;;;;;;6269700;22;20031;-67
2022/07/21 10:09:03;;;;;;;13.63;12.20;;;22.30;99.90;;;;;;6240367;22;20015;-67
2022/07/21 10:11:29;;;;;;;16.20;13.73;;;22.10;99.90;;;;;;6267448;22;20050;-67
2022/07/21 10:13:55;;;;;;;15.65;13.25;;;21.90;99.90;;;;;;6266944;22;20042;-68
2022/07/21 10:16:21;;;;;;;15.18;13.43;;;21.80;99.90;;;;;;6266477;22;20095;-67
2022/07/21 10:19:12;;;;;;;16.30;13.82;;;21.60;99.90;;;;;;6268023;22;20023;-68
2022/07/21 10:21:49;;;;;;;15.05;13.45;;;21.50;99.90;;;;;;6267946;22;20011;-68
2022/07/21 10:24:16;;;;;;;16.83;13.82;;;21.50;99.90;;;;;;6269718;22;20059;-68
2022/07/21 10:27:13;;;;;;;16.77;13.18;;;21.50;99.90;;;;;;6267010;22;20020;-67
2022/07/21 10:29:52;;;;;;;16.38;14.05;;;21.40;99.90;;;;;;6268710;22;20011;-67
2022/07/21 10:32:33;;;;;;;18.15;14.00;;;21.40;99.90;;;;;;6265089;22;20447;-68
2022/07/21 10:35:19;;;;;;;16.48;13.60;;;21.40;99.90;;;;;;6264786;22;20031;-68
2022/07/21 10:37:46;;;;;;;18.13;13.50;;;21.40;99.90;;;;;;6264411;22;20094;-68
2022/07/21 10:40:21;;;;;;;17.95;14.10;;;21.30;99.90;;;;;;6266414;22;20019;-68
2022/07/21 10:42:58;;;;;;;14.52;12.77;;;21.30;99.90;;;;;;6264511;22;20478;-67
2022/07/21 10:45:34;;;;;;;14.23;12.75;;;21.30;99.90;;;;;;6264077;22;20065;-68
2022/07/21 10:48:01;;;;;;;16.00;12.70;;;21.30;99.90;;;;;;6263731;22;20434;-67
2022/07/21 10:50:33;;;;;;;14.63;12.77;;;21.30;99.90;;;;;;6268368;22;20251;-67
2022/07/21 10:53:00;;;;;;;14.95;12.40;;;21.20;99.90;;;;;;6267168;22;20015;-68
2022/07/21 10:55:28;;;;;;;18.55;13.70;;;21.10;99.90;;;;;;6265517;22;20066;-67
2022/07/21 10:58:30;;;;;;;18.80;14.05;;;21.00;99.90;;;;;;6267166;22;20320;-67
2022/07/21 11:01:14;;;;;;;18.02;13.27;;;20.90;99.90;;;;;;6119250;23;20024;-68
2022/07/21 11:03:42;;;;;;;16.90;12.80;;;20.80;99.90;;;;;;6257837;22;20043;-67
2022/07/21 11:06:24;;;;;;;19.83;13.98;;;20.70;99.90;;;;;;6269692;22;20047;-67
2022/07/21 11:08:59;;;;;;;21.58;13.32;;;20.60;99.90;;;;;;6267857;22;20462;-67
2022/07/21 11:11:27;;;;;;;18.17;14.07;;;20.50;99.90;;;;;;6270982;22;20023;-67
2022/07/21 11:14:12;;;;;;;19.92;13.20;;;20.50;99.90;;;;;;6268328;22;20058;-67
2022/07/21 11:16:46;;;;;;;18.92;13.68;;;20.40;99.90;;;;;;6267816;22;20019;-66
2022/07/21 11:19:31;;;;;;;17.90;13.48;;;20.30;99.90;;;;;;6269387;22;20030;-66
2022/07/21 11:22:01;;;;;;;21.42;14.30;;;20.20;99.90;;;;;;6267836;22;20011;-66
2022/07/21 11:24:27;;;;;;;22.15;14.15;;;20.20;99.90;;;;;;6270244;22;20478;-66
2022/07/21 11:27:04;;;;;;;16.73;13.45;;;20.20;99.90;;;;;;6266251;22;20058;-66
2022/07/21 11:29:31;;;;;;;17.77;14.10;;;20.10;99.90;;;;;;6268358;22;20020;-66
2022/07/21 11:31:58;;;;;;;16.27;13.25;;;20.10;99.90;;;;;;6269051;22;20019;-66
2022/07/21 11:34:25;;;;;;;15.82;13.02;;;20.10;99.90;;;;;;6269813;22;20016;-66
2022/07/21 11:37:01;;;;;;;15.68;13.45;;;20.20;99.90;;;;;;6269916;22;20015;-66
2022/07/21 11:39:27;;;;;;;17.73;13.68;;;20.10;99.90;;;;;;6266660;22;20023;-66
2022/07/21 11:41:54;;;;;;;15.73;13.32;;;20.10;99.90;;;;;;6269132;22;20496;-66
2022/07/21 11:44:26;;;;;;;18.25;13.38;;;20.10;99.90;;;;;;6268387;22;20450;-66
2022/07/21 11:46:54;;;;;;;18.25;13.52;;;20.10;99.90;;;;;;6269584;22;20020;-66
2022/07/21 11:49:21;;;;;;;16.85;12.68;;;20.10;99.90;;;;;;6267686;22;20073;-66
2022/07/21 11:52:02;;;;;;;18.30;13.95;;;20.00;99.90;;;;;;6265316;22;20023;-66
2022/07/21 11:54:32;;;;;;;17.27;14.30;;;20.00;99.90;;;;;;6268990;22;20098;-66
2022/07/21 11:57:01;;;;;;;18.30;13.77;;;20.10;99.90;;;;;;6263065;22;20016;-67
2022/07/21 11:59:28;;;;;;;18.05;14.45;;;20.10;99.90;;;;;;6268562;22;20018;-66
2022/07/21 12:02:00;;;;;;;17.63;14.05;;;20.10;99.90;;;;;;6261982;22;20030;-66
2022/07/21 12:04:26;;;;;;;17.25;13.18;;;20.20;99.90;;;;;;6269625;22;20454;-67
2022/07/21 12:06:52;;;;;;;15.35;12.98;;;20.20;99.90;;;;;;6268949;22;20023;-66
2022/07/21 12:09:19;;;;;;;18.75;13.30;;;20.20;99.90;;;;;;6265702;22;20023;-67
2022/07/21 12:11:44;;;;;;;20.70;14.20;;;20.20;99.90;;;;;;6267711;22;20027;-67
2022/07/21 12:14:10;;;;;;;17.60;13.10;;;20.30;99.90;;;;;;6266083;22;20370;-67
2022/07/21 12:16:54;;;;;;;21.48;15.18;;;20.30;99.90;;;;;;6269947;22;20466;-67
2022/07/21 12:19:20;;;;;;;21.92;16.33;;;20.40;99.90;;;;;;6267944;22;20496;-66
2022/07/21 12:21:50;;;;;;;24.98;18.40;;;20.40;99.90;;;;;;6268975;22;20451;-66
2022/07/21 12:24:18;;;;;;;21.27;17.30;;;20.50;99.90;;;;;;6270030;22;20023;-66
2022/07/21 12:26:45;;;;;;;23.58;17.15;;;20.50;99.90;;;;;;6267807;22;20447;-66
2022/07/21 12:29:28;;;;;;;18.98;15.27;;;20.60;99.90;;;;;;6267545;22;20070;-66
2022/07/21 12:31:53;;;;;;;19.05;14.35;;;20.60;99.90;;;;;;6266310;22;20022;-66
2022/07/21 12:34:20;;;;;;;16.35;14.63;;;20.70;99.90;;;;;;6269866;22;20115;-67
2022/07/21 12:36:47;;;;;;;23.92;15.80;;;20.70;99.90;;;;;;6268800;22;20015;-65
2022/07/21 12:39:55;;;;;;;24.08;16.35;;;20.80;99.90;;;;;;6268737;22;20012;-66